createdAt,value
2018-03-22T00:00:07.943Z,87.60
2018-03-22T00:02:37.553Z,87.60
2018-03-22T00:05:07.462Z,86.10
2018-03-22T00:07:38.136Z,87.80
2018-03-22T00:10:08.062Z,87.70
2018-03-22T00:12:38.822Z,86.30
2018-03-22T00:15:08.706Z,86.30
2018-03-22T00:17:38.578Z,85.50
2018-03-22T00:20:08.540Z,86.50
2018-03-22T00:22:39.466Z,86.80
2018-03-22T00:25:09.341Z,87.10
2018-03-22T00:27:40.014Z,86.20
2018-03-22T00:30:09.941Z,86.10
2018-03-22T00:32:39.861Z,86.00
2018-03-22T00:35:09.741Z,86.70
2018-03-22T00:37:40.502Z,87.20
2018-03-22T00:40:11.118Z,87.30
2018-03-22T00:42:41.110Z,87.30
2018-03-22T00:45:11.781Z,86.20
2018-03-22T00:47:41.706Z,86.30
2018-03-22T00:50:11.616Z,86.50
2018-03-22T00:52:41.473Z,86.60
2018-03-22T00:55:12.141Z,85.70
2018-03-22T00:57:42.014Z,85.70
2018-03-22T01:00:11.985Z,86.00
2018-03-22T01:02:42.693Z,85.50
2018-03-22T01:05:12.661Z,85.50
2018-03-22T01:07:42.622Z,85.30
2018-03-22T01:10:12.498Z,86.30
2018-03-22T01:12:42.422Z,87.50
2018-03-22T01:15:13.141Z,87.40
2018-03-22T01:17:43.821Z,86.70
2018-03-22T01:20:14.613Z,86.30
2018-03-22T01:22:45.305Z,86.40
2018-03-22T01:25:15.261Z,86.40
2018-03-22T01:27:45.173Z,86.60
2018-03-22T01:30:32.817Z,87.50
2018-03-22T01:33:02.694Z,88.00
2018-03-22T01:35:33.373Z,87.80
2018-03-22T01:38:03.302Z,87.80
2018-03-22T01:40:33.213Z,87.70
2018-03-22T01:43:03.094Z,87.70
2018-03-22T01:45:33.861Z,86.60
2018-03-22T01:48:03.786Z,86.50
2018-03-22T01:50:33.735Z,86.80
2018-03-22T01:53:14.549Z,87.10
2018-03-22T01:55:44.453Z,87.10
2018-03-22T01:58:14.386Z,88.10
2018-03-22T02:00:44.297Z,87.70
2018-03-22T02:03:14.213Z,87.70
2018-03-22T02:05:44.134Z,87.40
2018-03-22T02:08:14.069Z,88.10
2018-03-22T02:10:43.986Z,88.60
2018-03-22T02:13:13.899Z,87.60
2018-03-22T02:15:43.874Z,87.50
2018-03-22T02:18:13.773Z,86.40
2018-03-22T02:20:43.750Z,85.80
2018-03-22T02:23:14.466Z,87.90
2018-03-22T02:25:44.385Z,87.80
2018-03-22T02:28:14.294Z,89.00
2018-03-22T02:30:44.197Z,88.40
2018-03-22T02:33:14.095Z,85.50
2018-03-22T02:35:44.022Z,86.00
2018-03-22T02:38:13.942Z,87.60
2018-03-22T02:40:43.853Z,88.30
2018-03-22T02:43:13.705Z,88.10
2018-03-22T02:45:43.578Z,86.30
2018-03-22T02:48:13.502Z,86.60
2018-03-22T02:50:43.428Z,87.50
2018-03-22T02:53:13.302Z,88.20
2018-03-22T02:55:43.222Z,88.00
2018-03-22T02:58:13.145Z,87.10
2018-03-22T03:00:43.062Z,87.40
2018-03-22T03:03:12.959Z,87.40
2018-03-22T03:05:42.858Z,87.60
2018-03-22T03:08:12.783Z,86.50
2018-03-22T03:10:42.709Z,86.90
2018-03-22T03:13:13.309Z,85.00
2018-03-22T03:15:43.997Z,87.20
2018-03-22T03:18:13.903Z,87.20
2018-03-22T03:20:44.868Z,86.30
2018-03-22T03:23:14.741Z,86.30
2018-03-22T03:25:45.905Z,85.60
2018-03-22T03:28:16.657Z,86.70
2018-03-22T03:30:46.534Z,86.70
2018-03-22T03:33:17.261Z,88.30
2018-03-22T03:35:47.149Z,88.30
2018-03-22T03:38:17.830Z,87.50
2018-03-22T03:43:18.060Z,88.30
2018-03-22T03:45:47.910Z,88.30
2018-03-22T03:48:17.840Z,87.30
2018-03-22T03:50:47.740Z,88.30
2018-03-22T03:53:17.615Z,88.00
2018-03-22T03:55:47.481Z,88.60
2018-03-22T03:58:18.202Z,87.90
2018-03-22T04:00:48.068Z,87.90
2018-03-22T04:03:17.932Z,89.10
2018-03-22T04:05:47.869Z,87.90
2018-03-22T04:08:17.772Z,86.70
2018-03-22T04:10:48.480Z,88.00
2018-03-22T04:13:18.383Z,88.00
2018-03-22T04:15:48.301Z,87.60
2018-03-22T04:18:18.257Z,88.40
2018-03-22T04:20:48.901Z,88.00
2018-03-22T04:23:18.798Z,87.90
2018-03-22T04:25:49.472Z,86.60
2018-03-22T04:28:19.305Z,86.60
2018-03-22T04:30:49.201Z,86.20
2018-03-22T04:33:19.090Z,85.90
2018-03-22T04:35:49.776Z,86.90
2018-03-22T04:38:19.650Z,86.80
2018-03-22T04:40:49.562Z,88.60
2018-03-22T04:43:19.480Z,89.60
2018-03-22T04:45:49.360Z,90.10
2018-03-22T04:48:19.997Z,90.30
2018-03-22T04:50:49.945Z,90.30
2018-03-22T04:53:20.785Z,91.00
2018-03-22T04:55:50.704Z,90.90
2018-03-22T04:58:20.652Z,91.20
2018-03-22T05:00:51.364Z,90.70
2018-03-22T05:03:22.222Z,90.10
2018-03-22T05:05:52.141Z,90.10
2018-03-22T05:08:22.882Z,90.00
2018-03-22T05:10:52.794Z,90.00
2018-03-22T05:13:22.760Z,90.20
2018-03-22T05:15:52.648Z,89.80
2018-03-22T05:18:23.336Z,90.40
2018-03-22T05:20:53.238Z,90.40
2018-03-22T05:23:24.076Z,90.80
2018-03-22T05:25:53.968Z,90.30
2018-03-22T05:28:23.877Z,90.30
2018-03-22T05:30:53.763Z,90.00
2018-03-22T05:33:24.445Z,89.60
2018-03-22T05:35:55.189Z,90.10
2018-03-22T05:38:25.253Z,90.10
2018-03-22T05:40:55.920Z,89.50
2018-03-22T05:43:25.800Z,89.50
2018-03-22T05:45:55.677Z,89.70
2018-03-22T05:48:26.411Z,89.30
2018-03-22T05:50:56.289Z,89.20
2018-03-22T05:53:27.156Z,89.10
2018-03-22T05:55:57.836Z,90.10
2018-03-22T05:58:27.724Z,90.10
2018-03-22T06:00:58.420Z,89.60
2018-03-22T06:03:28.300Z,89.50
2018-03-22T06:05:58.180Z,88.30
2018-03-22T06:08:28.841Z,87.40
2018-03-22T06:10:58.672Z,87.40
2018-03-22T06:13:28.551Z,87.10
2018-03-22T06:15:59.204Z,87.60
2018-03-22T06:18:29.848Z,87.70
2018-03-22T06:20:59.769Z,87.70
2018-03-22T06:23:30.501Z,87.60
2018-03-22T06:26:01.224Z,88.50
2018-03-22T06:28:31.120Z,88.50
2018-03-22T06:31:01.204Z,89.70
2018-03-22T06:33:31.971Z,90.90
2018-03-22T06:36:02.619Z,90.70
2018-03-22T06:38:32.517Z,90.60
2018-03-22T06:41:03.165Z,90.80
2018-03-22T06:43:33.989Z,90.60
2018-03-22T06:46:04.661Z,90.60
2018-03-22T06:48:34.524Z,90.60
2018-03-22T06:51:05.213Z,90.50
2018-03-22T06:53:35.089Z,90.50
2018-03-22T06:56:05.013Z,90.60
2018-03-22T06:58:34.902Z,90.60
2018-03-22T07:01:04.788Z,90.80
2018-03-22T07:03:35.453Z,91.10
2018-03-22T07:06:06.121Z,91.10
2018-03-22T07:08:37.031Z,90.60
2018-03-22T07:11:06.917Z,90.50
2018-03-22T07:13:36.831Z,90.40
2018-03-22T07:16:07.521Z,90.10
2018-03-22T07:18:37.429Z,90.10
2018-03-22T07:21:07.301Z,90.30
2018-03-22T07:23:38.221Z,88.70
2018-03-22T07:26:08.837Z,89.10
2018-03-22T07:28:38.849Z,88.30
2018-03-22T07:31:08.686Z,89.40
2018-03-22T07:33:38.597Z,90.10
2018-03-22T07:36:08.462Z,89.80
2018-03-22T07:38:38.343Z,88.90
2018-03-22T07:41:09.010Z,87.20
2018-03-22T07:43:43.606Z,87.30
2018-03-22T07:46:14.475Z,82.90
2018-03-22T07:48:44.330Z,82.80
2018-03-22T07:51:14.990Z,82.90
2018-03-22T07:56:20.861Z,82.60
2018-03-22T07:58:51.576Z,80.20
2018-03-22T08:01:22.251Z,79.80
2018-03-22T08:03:52.905Z,79.40
2018-03-22T08:06:23.585Z,80.40
2018-03-22T08:08:54.185Z,80.10
2018-03-22T08:11:24.891Z,78.60
2018-03-22T08:13:55.342Z,78.60
2018-03-22T08:16:25.261Z,79.40
2018-03-22T08:18:55.908Z,77.80
2018-03-22T08:21:25.824Z,77.70
2018-03-22T08:23:56.471Z,74.60
2018-03-22T08:26:26.342Z,74.60
2018-03-22T08:28:57.007Z,72.50
2018-03-22T08:31:27.658Z,71.80
2018-03-22T08:33:57.530Z,71.70
2018-03-22T08:36:28.217Z,71.80
2018-03-22T08:38:58.070Z,71.80
2018-03-22T08:41:28.734Z,70.90
2018-03-22T08:43:59.561Z,72.50
2018-03-22T08:46:30.169Z,71.10
2018-03-22T08:49:00.031Z,71.00
2018-03-22T08:51:29.917Z,70.20
2018-03-22T08:53:59.730Z,70.00
2018-03-22T08:56:30.367Z,68.60
2018-03-22T08:59:00.228Z,68.60
2018-03-22T09:01:30.085Z,66.90
2018-03-22T09:04:00.700Z,67.20
2018-03-22T09:06:30.568Z,67.20
2018-03-22T09:09:00.457Z,68.30
2018-03-22T09:11:31.276Z,66.50
2018-03-22T09:14:01.953Z,66.10
2018-03-22T09:16:31.821Z,66.10
2018-03-22T09:19:02.470Z,66.40
2018-03-22T09:21:32.355Z,66.40
2018-03-22T09:24:03.022Z,64.40
2018-03-22T09:29:35.682Z,62.60
2018-03-22T09:32:05.556Z,62.30
2018-03-22T09:34:35.445Z,62.20
2018-03-22T09:37:05.286Z,63.10
2018-03-22T09:39:36.007Z,62.20
2018-03-22T09:42:05.889Z,62.10
2018-03-22T09:44:36.498Z,62.90
2018-03-22T09:47:06.351Z,62.90
2018-03-22T09:49:36.182Z,60.40
2018-03-22T09:52:06.021Z,59.90
2018-03-22T09:54:35.894Z,59.40
2018-03-22T09:57:06.629Z,61.70
2018-03-22T09:59:36.459Z,61.70
2018-03-22T10:02:07.181Z,58.70
2018-03-22T10:04:36.998Z,58.70
2018-03-22T10:07:06.830Z,57.80
2018-03-22T10:09:37.491Z,57.30
2018-03-22T10:12:08.238Z,57.70
2018-03-22T10:14:38.122Z,57.70
2018-03-22T10:17:07.972Z,56.70
2018-03-22T10:19:38.594Z,56.90
2018-03-22T10:22:09.262Z,55.50
2018-03-22T10:24:39.119Z,55.50
2018-03-22T10:27:08.987Z,56.60
2018-03-22T10:29:38.850Z,56.40
2018-03-22T10:32:10.721Z,54.60
2018-03-22T10:34:41.325Z,57.50
2018-03-22T10:37:11.202Z,57.40
2018-03-22T10:39:41.079Z,56.40
2018-03-22T10:42:11.790Z,53.50
2018-03-22T10:44:41.662Z,53.50
2018-03-22T10:47:12.254Z,56.10
2018-03-22T10:49:42.106Z,54.50
2018-03-22T10:52:11.951Z,53.00
2018-03-22T10:54:41.801Z,55.00
2018-03-22T10:57:12.417Z,52.90
2018-03-22T10:59:43.050Z,51.70
2018-03-22T11:02:18.525Z,51.70
2018-03-22T11:04:49.237Z,50.30
2018-03-22T11:07:19.894Z,52.90
2018-03-22T11:09:50.350Z,52.90
2018-03-22T11:12:20.216Z,50.30
2018-03-22T11:14:50.110Z,51.70
2018-03-22T11:17:20.862Z,52.70
2018-03-22T11:19:51.519Z,48.30
2018-03-22T11:22:21.422Z,48.20
2018-03-22T11:24:51.275Z,50.30
2018-03-22T11:27:21.159Z,50.50
2018-03-22T11:29:51.041Z,49.30
2018-03-22T11:32:21.649Z,48.40
2018-03-22T11:34:52.295Z,50.30
2018-03-22T11:37:23.043Z,50.60
2018-03-22T11:39:52.910Z,50.50
2018-03-22T11:42:23.570Z,48.20
2018-03-22T11:44:54.210Z,47.90
2018-03-22T11:47:24.844Z,48.50
2018-03-22T11:49:55.479Z,47.40
2018-03-22T11:52:26.141Z,46.60
2018-03-22T11:54:55.972Z,46.60
2018-03-22T11:57:25.790Z,49.00
2018-03-22T11:59:55.674Z,49.60
2018-03-22T12:02:25.522Z,47.80
2018-03-22T12:04:55.370Z,47.30
2018-03-22T12:07:25.993Z,45.60
2018-03-22T12:09:56.170Z,45.50
2018-03-22T12:12:26.989Z,48.50
2018-03-22T12:14:57.018Z,48.50
2018-03-22T12:17:26.927Z,48.20
2018-03-22T12:19:56.810Z,49.50
2018-03-22T12:22:26.746Z,49.20
2018-03-22T12:24:56.591Z,48.20
2018-03-22T12:27:26.480Z,48.60
2018-03-22T12:29:56.329Z,46.50
2018-03-22T12:32:26.261Z,45.60
2018-03-22T12:34:56.904Z,46.00
2018-03-22T12:37:26.770Z,46.00
2018-03-22T12:39:57.459Z,44.30
2018-03-22T12:42:27.329Z,44.50
2018-03-22T12:44:58.010Z,42.80
2018-03-22T12:47:27.873Z,42.80
2018-03-22T12:49:57.750Z,43.60
2018-03-22T12:52:27.686Z,40.40
2018-03-22T12:54:57.602Z,40.30
2018-03-22T12:57:27.494Z,42.10
2018-03-22T12:59:57.362Z,46.30
2018-03-22T13:02:27.189Z,44.90
2018-03-22T13:04:57.070Z,44.80
2018-03-22T13:07:26.970Z,42.80
2018-03-22T13:09:56.819Z,47.10
2018-03-22T13:12:26.682Z,49.10
2018-03-22T13:14:56.522Z,47.50
2018-03-22T13:17:26.382Z,50.40
2018-03-22T13:19:56.221Z,47.10
2018-03-22T13:22:28.067Z,46.40
2018-03-22T13:24:57.922Z,47.90
2018-03-22T13:27:27.798Z,48.00
2018-03-22T13:29:57.653Z,45.00
2018-03-22T13:32:27.541Z,43.00
2018-03-22T13:34:57.407Z,45.60
2018-03-22T13:37:28.049Z,42.30
2018-03-22T13:39:57.877Z,42.20
2018-03-22T13:42:27.769Z,43.30
2018-03-22T13:44:57.649Z,42.30
2018-03-22T13:47:28.323Z,43.30
2018-03-22T13:49:58.144Z,43.20
2018-03-22T13:52:28.021Z,42.60
2018-03-22T13:54:57.965Z,44.60
2018-03-22T13:57:27.881Z,44.50
2018-03-22T13:59:57.702Z,46.50
2018-03-22T14:02:27.572Z,47.60
2018-03-22T14:04:58.209Z,50.80
2018-03-22T14:07:28.121Z,50.70
2018-03-22T14:09:58.006Z,46.20
2018-03-22T14:12:27.942Z,46.50
2018-03-22T14:14:58.569Z,47.70
2018-03-22T14:17:28.473Z,47.70
2018-03-22T14:19:59.147Z,49.10
2018-03-22T14:22:28.971Z,49.10
2018-03-22T14:24:58.862Z,50.60
2018-03-22T14:27:29.445Z,51.30
2018-03-22T14:29:59.342Z,51.20
2018-03-22T14:32:29.170Z,52.10
2018-03-22T14:34:59.006Z,49.60
2018-03-22T14:37:29.637Z,51.90
2018-03-22T14:39:59.501Z,51.90
2018-03-22T14:42:29.408Z,52.10
2018-03-22T14:44:59.282Z,52.10
2018-03-22T14:47:29.945Z,52.70
2018-03-22T14:50:00.597Z,52.70
2018-03-22T14:52:30.485Z,54.00
2018-03-22T14:55:00.370Z,54.60
2018-03-22T14:57:31.047Z,53.20
2018-03-22T15:00:00.901Z,53.10
2018-03-22T15:02:31.565Z,52.80
2018-03-22T15:05:02.234Z,53.10
2018-03-22T15:07:32.125Z,53.10
2018-03-22T15:10:02.100Z,52.70
2018-03-22T15:12:32.770Z,52.00
2018-03-22T15:15:02.670Z,51.90
2018-03-22T15:17:32.584Z,50.60
2018-03-22T15:20:03.243Z,53.30
2018-03-22T15:22:33.125Z,53.30
2018-03-22T15:25:02.982Z,53.90
2018-03-22T15:27:32.842Z,55.10
2018-03-22T15:30:03.542Z,54.60
2018-03-22T15:32:33.396Z,54.60
2018-03-22T15:35:03.269Z,55.60
2018-03-22T15:37:33.140Z,55.90
2018-03-22T15:40:03.044Z,58.00
2018-03-22T15:42:32.942Z,55.60
2018-03-22T15:45:03.677Z,56.30
2018-03-22T15:47:33.561Z,56.30
2018-03-22T15:50:03.439Z,57.60
2018-03-22T15:52:33.306Z,56.10
2018-03-22T15:55:03.221Z,56.10
2018-03-22T15:57:33.920Z,56.70
2018-03-22T16:00:03.952Z,56.60
2018-03-22T16:02:34.586Z,56.00
2018-03-22T16:05:04.551Z,56.00
2018-03-22T16:07:34.484Z,55.30
2018-03-22T16:10:04.430Z,54.50
2018-03-22T16:12:34.288Z,55.30
2018-03-22T16:15:04.178Z,55.20
2018-03-22T16:17:34.084Z,56.00
2018-03-22T16:20:04.771Z,56.00
2018-03-22T16:22:34.621Z,56.00
2018-03-22T16:25:05.349Z,57.10
2018-03-22T16:27:36.261Z,55.90
2018-03-22T16:30:07.278Z,55.30
2018-03-22T16:32:38.044Z,57.00
2018-03-22T16:35:07.970Z,57.00
2018-03-22T16:37:38.025Z,56.50
2018-03-22T16:40:07.913Z,56.50
2018-03-22T16:42:39.384Z,55.20
2018-03-22T16:45:09.250Z,55.20
2018-03-22T16:47:39.566Z,55.00
2018-03-22T16:50:09.402Z,55.90
2018-03-22T16:52:39.254Z,57.20
2018-03-22T16:55:09.913Z,55.70
2018-03-22T16:57:39.768Z,55.70
2018-03-22T17:00:09.629Z,56.60
2018-03-22T17:02:40.284Z,55.90
2018-03-22T17:05:10.202Z,55.90
2018-03-22T17:07:40.125Z,57.00
2018-03-22T17:10:10.650Z,56.60
2018-03-22T17:12:40.502Z,59.00
2018-03-22T17:15:11.186Z,55.60
2018-03-22T17:17:42.786Z,57.80
2018-03-22T17:20:12.733Z,57.10
2018-03-22T17:22:42.632Z,57.10
2018-03-22T17:25:12.565Z,57.30
2018-03-22T17:27:42.473Z,58.50
2018-03-22T17:30:12.462Z,57.20
2018-03-22T17:32:42.398Z,57.60
2018-03-22T17:35:13.424Z,56.40
2018-03-22T17:37:44.050Z,58.20
2018-03-22T17:40:13.985Z,58.20
2018-03-22T17:42:44.686Z,55.30
2018-03-22T17:45:15.393Z,55.60
2018-03-22T17:47:46.103Z,57.30
2018-03-22T17:50:16.105Z,57.20
2018-03-22T17:52:46.798Z,58.60
2018-03-22T17:55:16.615Z,58.60
2018-03-22T17:57:47.445Z,58.50
2018-03-22T18:00:17.344Z,57.10
2018-03-22T18:02:47.325Z,56.10
2018-03-22T18:05:17.205Z,53.00
2018-03-22T18:07:47.866Z,53.90
2018-03-22T18:10:18.577Z,54.20
2018-03-22T18:12:50.062Z,54.20
2018-03-22T18:15:19.911Z,54.10
2018-03-22T18:17:49.790Z,58.40
2018-03-22T18:20:19.741Z,55.40
2018-03-22T18:22:50.152Z,54.20
2018-03-22T18:25:20.007Z,55.50
2018-03-22T18:27:50.661Z,57.80
2018-03-22T18:30:20.570Z,57.80
2018-03-22T18:32:50.525Z,55.70
2018-03-22T18:35:20.437Z,55.90
2018-03-22T18:37:50.363Z,56.00
2018-03-22T18:40:20.222Z,54.10
2018-03-22T18:42:50.843Z,55.20
2018-03-22T18:45:21.485Z,56.30
2018-03-22T18:47:51.382Z,56.20
2018-03-22T18:50:22.151Z,57.70
2018-03-22T18:52:51.987Z,57.60
2018-03-22T18:55:21.842Z,58.80
2018-03-22T18:57:51.851Z,58.00
2018-03-22T19:00:22.865Z,59.50
2018-03-22T19:02:53.521Z,60.50
2018-03-22T19:05:24.193Z,60.20
2018-03-22T19:07:54.026Z,60.20
2018-03-22T19:10:24.782Z,61.70
2018-03-22T19:12:55.463Z,64.90
2018-03-22T19:15:25.341Z,64.90
2018-03-22T19:17:55.237Z,64.30
2018-03-22T19:20:25.091Z,66.50
2018-03-22T19:22:55.741Z,69.20
2018-03-22T19:25:25.626Z,69.10
2018-03-22T19:27:56.246Z,69.70
2018-03-22T19:30:26.893Z,70.90
2018-03-22T19:32:57.574Z,72.60
2018-03-22T19:35:28.306Z,72.60
2018-03-22T19:37:58.187Z,72.40
2018-03-22T19:40:28.090Z,72.30
2018-03-22T19:42:58.771Z,74.70
2018-03-22T19:45:28.654Z,74.70
2018-03-22T19:47:58.545Z,74.80
2018-03-22T19:50:28.440Z,74.20
2018-03-22T19:52:58.393Z,74.60
2018-03-22T19:55:28.270Z,73.50
2018-03-22T19:57:58.159Z,74.80
2018-03-22T20:00:28.047Z,74.90
2018-03-22T20:02:57.992Z,75.20
2018-03-22T20:05:28.696Z,76.00
2018-03-22T20:07:58.581Z,75.80
2018-03-22T20:10:28.505Z,76.60
2018-03-22T20:12:58.426Z,75.50
2018-03-22T20:15:28.349Z,76.70
2018-03-22T20:17:58.278Z,77.60
2018-03-22T20:20:28.171Z,77.40
2018-03-22T20:22:58.069Z,77.90
2018-03-22T20:25:27.942Z,78.40
2018-03-22T20:27:58.668Z,78.50
2018-03-22T20:30:29.396Z,78.40
2018-03-22T20:32:59.312Z,78.40
2018-03-22T20:35:29.154Z,77.80
2018-03-22T20:37:59.933Z,78.30
2018-03-22T20:40:29.811Z,78.30
2018-03-22T20:42:59.782Z,78.40
2018-03-22T20:45:30.524Z,78.70
2018-03-22T20:48:01.222Z,79.30
2018-03-22T20:50:31.107Z,79.30
2018-03-22T20:53:01.745Z,77.20
2018-03-22T20:55:31.652Z,77.20
2018-03-22T20:58:01.547Z,77.10
2018-03-22T21:00:31.487Z,77.20
2018-03-22T21:03:02.201Z,78.20
2018-03-22T21:05:32.842Z,77.60
2018-03-22T21:08:02.702Z,77.60
2018-03-22T21:10:32.602Z,77.40
2018-03-22T21:13:02.473Z,77.40
2018-03-22T21:15:32.390Z,77.50
2018-03-22T21:18:03.081Z,77.50
2018-03-22T21:20:32.948Z,77.50
2018-03-22T21:23:03.602Z,78.80
2018-03-22T21:25:33.615Z,78.80
2018-03-22T21:28:03.489Z,81.20
2018-03-22T21:30:34.181Z,84.00
2018-03-22T21:33:04.075Z,84.00
2018-03-22T21:35:33.949Z,84.10
2018-03-22T21:38:04.631Z,87.70
2018-03-22T21:40:34.542Z,87.70
2018-03-22T21:43:04.505Z,87.40
2018-03-22T21:45:34.462Z,88.70
2018-03-22T21:48:04.450Z,90.20
2018-03-22T21:50:49.844Z,90.90
2018-03-22T21:53:19.796Z,90.90
2018-03-22T21:55:49.645Z,91.40
2018-03-22T21:58:20.417Z,92.30
2018-03-22T22:00:50.314Z,92.30
2018-03-22T22:03:20.266Z,92.90
2018-03-22T22:05:50.153Z,93.00
2018-03-22T22:08:20.041Z,93.40
2018-03-22T22:10:51.190Z,94.00
2018-03-22T22:13:21.972Z,94.40
2018-03-22T22:15:51.871Z,94.40
2018-03-22T22:18:21.848Z,94.40
2018-03-22T22:20:52.507Z,95.50
2018-03-22T22:23:22.428Z,95.50
2018-03-22T22:25:52.342Z,95.70
2018-03-22T22:28:22.266Z,95.80
2018-03-22T22:30:52.190Z,96.00
2018-03-22T22:33:22.922Z,96.50
2018-03-22T22:35:52.838Z,96.50
2018-03-22T22:38:22.782Z,96.50
2018-03-22T22:40:53.470Z,97.50
2018-03-22T22:43:23.342Z,97.50
2018-03-22T22:45:54.021Z,97.60
2018-03-22T22:48:23.901Z,97.60
2018-03-22T22:50:54.582Z,98.00
2018-03-22T22:53:24.526Z,98.00
2018-03-22T22:55:55.269Z,98.10
2018-03-22T22:58:25.962Z,98.20
2018-03-22T23:00:55.826Z,98.20
2018-03-22T23:03:26.522Z,98.20
2018-03-22T23:05:56.501Z,98.20
2018-03-22T23:08:26.438Z,98.40
2018-03-22T23:10:56.521Z,98.60
2018-03-22T23:13:26.483Z,98.60
2018-03-22T23:15:57.236Z,98.90
2018-03-22T23:18:27.946Z,98.70
2018-03-22T23:20:58.674Z,98.70
2018-03-22T23:23:29.373Z,98.80
2018-03-22T23:25:59.305Z,98.80
2018-03-22T23:28:29.222Z,98.70
2018-03-22T23:30:59.130Z,98.70
2018-03-22T23:33:29.030Z,98.60
2018-03-22T23:35:58.978Z,99.10
2018-03-22T23:38:28.872Z,99.20
2018-03-22T23:40:58.787Z,99.30
2018-03-22T23:43:28.749Z,99.40
2018-03-22T23:46:00.232Z,99.70
2018-03-22T23:48:30.129Z,99.70
2018-03-22T23:51:00.802Z,99.90
2018-03-22T23:53:30.736Z,99.90
2018-03-22T23:56:01.605Z,99.90
2018-03-22T23:58:32.290Z,99.90
